createdAt,value
2017-06-23T00:00:21.251Z,99.99
2017-06-23T00:01:02.135Z,99.99
2017-06-23T00:01:43.026Z,99.99
2017-06-23T00:02:23.919Z,99.99
2017-06-23T00:03:04.803Z,99.99
2017-06-23T00:03:45.687Z,99.99
2017-06-23T00:04:26.606Z,99.99
2017-06-23T00:05:07.482Z,99.99
2017-06-23T00:05:48.384Z,99.99
2017-06-23T00:06:29.285Z,99.99
2017-06-23T00:07:10.151Z,99.99
2017-06-23T00:07:51.034Z,99.99
2017-06-23T00:08:31.962Z,99.99
2017-06-23T00:09:12.846Z,99.99
2017-06-23T00:09:53.735Z,99.99
2017-06-23T00:10:34.645Z,99.99
2017-06-23T00:11:15.533Z,99.99
2017-06-23T00:11:56.434Z,99.99
2017-06-23T00:12:37.313Z,99.99
2017-06-23T00:13:18.198Z,99.99
2017-06-23T00:13:59.088Z,99.99
2017-06-23T00:14:39.987Z,99.99
2017-06-23T00:15:20.873Z,99.99
2017-06-23T00:16:01.769Z,99.99
2017-06-23T00:16:42.657Z,99.99
2017-06-23T00:17:23.547Z,99.99
2017-06-23T00:18:04.427Z,99.99
2017-06-23T00:18:45.380Z,99.99
2017-06-23T00:19:26.291Z,99.99
2017-06-23T00:20:07.190Z,99.99
2017-06-23T00:20:48.079Z,99.99
2017-06-23T00:21:28.974Z,99.99
2017-06-23T00:22:09.856Z,99.99
2017-06-23T00:22:50.769Z,99.99
2017-06-23T00:23:31.651Z,99.99
2017-06-23T00:24:12.550Z,99.99
2017-06-23T00:24:53.435Z,99.99
2017-06-23T00:25:34.334Z,99.99
2017-06-23T00:26:15.211Z,99.99
2017-06-23T00:26:56.110Z,99.99
2017-06-23T00:27:37.003Z,99.99
2017-06-23T00:28:17.892Z,99.99
2017-06-23T00:28:58.782Z,99.99
2017-06-23T00:29:39.682Z,99.99
2017-06-23T00:30:20.575Z,99.99
2017-06-23T00:31:01.472Z,99.99
2017-06-23T00:31:42.363Z,99.99
2017-06-23T00:32:23.246Z,99.99
2017-06-23T00:33:04.136Z,99.99
2017-06-23T00:33:45.031Z,99.99
2017-06-23T00:34:25.902Z,99.99
2017-06-23T00:35:06.810Z,99.99
2017-06-23T00:35:47.696Z,99.99
2017-06-23T00:36:28.572Z,99.99
2017-06-23T00:37:09.466Z,99.99
2017-06-23T00:37:50.354Z,99.99
2017-06-23T00:38:31.246Z,99.99
2017-06-23T00:39:12.135Z,99.99
2017-06-23T00:40:51.518Z,99.99
2017-06-23T00:41:32.399Z,99.99
2017-06-23T00:42:13.283Z,99.99
2017-06-23T00:42:54.182Z,99.99
2017-06-23T00:43:35.067Z,99.99
2017-06-23T00:44:15.952Z,99.99
2017-06-23T00:44:56.846Z,99.99
2017-06-23T00:45:37.743Z,99.99
2017-06-23T00:46:18.633Z,99.99
2017-06-23T00:46:59.520Z,99.99
2017-06-23T00:47:40.419Z,99.99
2017-06-23T00:48:21.305Z,99.99
2017-06-23T00:49:02.199Z,99.99
2017-06-23T00:49:43.103Z,99.99
2017-06-23T00:50:23.992Z,99.99
2017-06-23T00:51:04.885Z,99.99
2017-06-23T00:51:45.770Z,99.99
2017-06-23T00:52:26.663Z,99.99
2017-06-23T00:53:07.551Z,99.99
2017-06-23T00:53:48.443Z,99.99
2017-06-23T00:54:29.339Z,99.99
2017-06-23T00:55:10.228Z,99.99
2017-06-23T00:55:51.128Z,99.99
2017-06-23T00:56:32.013Z,99.99
2017-06-23T00:57:12.896Z,99.99
2017-06-23T00:57:53.782Z,99.99
2017-06-23T00:58:34.669Z,99.99
2017-06-23T00:59:15.562Z,99.99
2017-06-23T00:59:56.459Z,99.99
2017-06-23T01:00:37.357Z,99.99
2017-06-23T01:01:18.260Z,99.99
2017-06-23T01:01:59.157Z,99.99
2017-06-23T01:02:40.036Z,99.99
2017-06-23T01:03:20.921Z,99.99
2017-06-23T01:04:01.813Z,99.99
2017-06-23T01:04:42.695Z,99.99
2017-06-23T01:05:23.587Z,99.99
2017-06-23T01:06:04.483Z,99.99
2017-06-23T01:06:45.368Z,99.99
2017-06-23T01:07:26.268Z,99.99
2017-06-23T01:08:07.166Z,99.99
2017-06-23T01:08:48.047Z,99.99
2017-06-23T01:09:28.952Z,99.99
2017-06-23T01:10:09.843Z,99.99
2017-06-23T01:10:50.731Z,99.99
2017-06-23T01:11:31.614Z,99.99
2017-06-23T01:12:12.510Z,99.99
2017-06-23T01:12:53.397Z,99.99
2017-06-23T01:13:34.284Z,99.99
2017-06-23T01:14:15.185Z,99.99
2017-06-23T01:14:56.079Z,99.99
2017-06-23T01:15:36.983Z,99.99
2017-06-23T01:16:17.873Z,99.99
2017-06-23T01:16:58.761Z,99.99
2017-06-23T01:17:39.665Z,99.99
2017-06-23T01:18:20.551Z,99.99
2017-06-23T01:19:01.449Z,99.99
2017-06-23T01:19:42.350Z,99.99
2017-06-23T01:20:23.241Z,99.99
2017-06-23T01:21:04.118Z,99.99
2017-06-23T01:21:45.000Z,99.99
2017-06-23T01:22:25.897Z,99.99
2017-06-23T01:23:06.790Z,99.99
2017-06-23T01:23:47.678Z,99.99
2017-06-23T01:24:28.569Z,99.99
2017-06-23T01:25:09.450Z,99.99
2017-06-23T01:25:50.345Z,99.99
2017-06-23T01:26:31.228Z,99.99
2017-06-23T01:27:12.125Z,99.99
2017-06-23T01:27:53.012Z,99.99
2017-06-23T01:28:33.917Z,99.99
2017-06-23T01:29:14.798Z,99.99
2017-06-23T01:29:55.705Z,99.99
2017-06-23T01:30:36.592Z,99.99
2017-06-23T01:31:17.472Z,99.99
2017-06-23T01:31:58.358Z,99.99
2017-06-23T01:32:39.241Z,99.99
2017-06-23T01:33:20.127Z,99.99
2017-06-23T01:34:01.004Z,99.99
2017-06-23T01:34:41.896Z,99.99
2017-06-23T01:35:22.795Z,99.99
2017-06-23T01:36:03.691Z,99.99
2017-06-23T01:36:44.566Z,99.99
2017-06-23T01:37:25.481Z,99.99
2017-06-23T01:38:06.353Z,99.99
2017-06-23T01:38:47.234Z,99.99
2017-06-23T01:39:28.139Z,99.99
2017-06-23T01:40:09.018Z,99.99
2017-06-23T01:40:49.907Z,99.99
2017-06-23T01:41:30.801Z,99.99
2017-06-23T01:42:11.691Z,99.99
2017-06-23T01:42:52.574Z,99.99
2017-06-23T01:43:33.444Z,99.99
2017-06-23T01:44:14.324Z,99.99
2017-06-23T01:44:55.206Z,99.99
2017-06-23T01:45:36.090Z,99.99
2017-06-23T01:46:16.978Z,99.99
2017-06-23T01:46:57.889Z,99.99
2017-06-23T01:47:38.769Z,99.99
2017-06-23T01:48:19.668Z,99.99
2017-06-23T01:49:00.560Z,99.99
2017-06-23T01:49:41.460Z,99.99
2017-06-23T01:50:22.342Z,99.99
2017-06-23T01:51:03.239Z,99.99
2017-06-23T01:51:44.126Z,99.99
2017-06-23T01:52:25.020Z,99.99
2017-06-23T01:53:05.907Z,99.99
2017-06-23T01:53:46.795Z,99.99
2017-06-23T01:54:27.687Z,99.99
2017-06-23T01:55:08.573Z,99.99
2017-06-23T01:55:49.444Z,99.99
2017-06-23T01:56:30.330Z,99.99
2017-06-23T01:57:11.210Z,99.99
2017-06-23T01:57:52.094Z,99.99
2017-06-23T01:58:32.988Z,99.99
2017-06-23T01:59:13.879Z,99.99
2017-06-23T01:59:54.772Z,99.99
2017-06-23T02:00:35.667Z,99.99
2017-06-23T02:01:16.540Z,99.99
2017-06-23T02:01:57.436Z,99.99
2017-06-23T02:02:38.330Z,99.99
2017-06-23T02:03:19.215Z,99.99
2017-06-23T02:04:00.101Z,99.99
2017-06-23T02:04:40.988Z,99.99
2017-06-23T02:05:21.876Z,99.99
2017-06-23T02:06:02.774Z,99.99
2017-06-23T02:06:43.664Z,99.99
2017-06-23T02:07:24.557Z,99.99
2017-06-23T02:08:05.445Z,99.99
2017-06-23T02:08:46.319Z,99.99
2017-06-23T02:09:27.210Z,99.99
2017-06-23T02:10:08.103Z,99.99
2017-06-23T02:10:48.992Z,99.99
2017-06-23T02:11:29.897Z,99.99
2017-06-23T02:12:10.777Z,99.99
2017-06-23T02:12:51.667Z,99.99
2017-06-23T02:13:32.566Z,99.99
2017-06-23T02:14:13.455Z,99.99
2017-06-23T02:14:54.328Z,99.99
2017-06-23T02:15:35.224Z,99.99
2017-06-23T02:16:16.118Z,99.99
2017-06-23T02:16:57.009Z,99.99
2017-06-23T02:17:37.897Z,99.99
2017-06-23T02:18:18.786Z,99.99
2017-06-23T02:18:59.672Z,99.99
2017-06-23T02:19:40.569Z,99.99
2017-06-23T02:20:21.466Z,99.99
2017-06-23T02:21:02.362Z,99.99
2017-06-23T02:21:43.252Z,99.99
2017-06-23T02:22:24.145Z,99.99
2017-06-23T02:23:05.037Z,99.99
2017-06-23T02:23:45.918Z,99.99
2017-06-23T02:24:26.812Z,99.99
2017-06-23T02:25:07.688Z,99.99
2017-06-23T02:25:48.577Z,99.99
2017-06-23T02:26:29.471Z,99.99
2017-06-23T02:27:10.366Z,99.99
2017-06-23T02:27:51.245Z,99.99
2017-06-23T02:28:32.136Z,99.99
2017-06-23T02:29:13.038Z,99.99
2017-06-23T02:29:53.903Z,99.99
2017-06-23T02:30:34.784Z,99.99
2017-06-23T02:31:15.690Z,99.99
2017-06-23T02:31:56.571Z,99.99
2017-06-23T02:32:37.464Z,99.99
2017-06-23T02:33:18.364Z,99.99
2017-06-23T02:33:59.254Z,99.99
2017-06-23T02:34:40.149Z,99.99
2017-06-23T02:35:21.046Z,99.99
2017-06-23T02:36:01.924Z,99.99
2017-06-23T02:36:42.818Z,99.99
2017-06-23T02:37:23.718Z,99.99
2017-06-23T02:38:04.605Z,99.99
2017-06-23T02:38:45.488Z,99.99
2017-06-23T02:39:26.376Z,99.99
2017-06-23T02:40:07.267Z,99.99
2017-06-23T02:40:48.162Z,99.99
2017-06-23T02:41:29.070Z,99.99
2017-06-23T02:42:09.955Z,99.99
2017-06-23T02:42:50.863Z,99.99
2017-06-23T02:43:31.748Z,99.99
2017-06-23T02:44:12.634Z,99.99
2017-06-23T02:44:53.523Z,99.99
2017-06-23T02:45:34.436Z,99.99
2017-06-23T02:46:15.307Z,99.99
2017-06-23T02:46:56.199Z,99.99
2017-06-23T02:47:37.101Z,99.99
2017-06-23T02:48:17.983Z,99.99
2017-06-23T02:48:58.872Z,99.99
2017-06-23T02:49:39.767Z,99.99
2017-06-23T02:50:20.651Z,99.99
2017-06-23T02:51:01.541Z,99.99
2017-06-23T02:51:42.427Z,99.99
2017-06-23T02:52:23.317Z,99.99
2017-06-23T02:53:04.212Z,99.99
2017-06-23T02:53:45.102Z,99.99
2017-06-23T02:54:26.013Z,99.99
2017-06-23T02:55:06.876Z,99.99
2017-06-23T02:55:47.751Z,99.99
2017-06-23T02:56:28.637Z,99.99
2017-06-23T02:57:09.518Z,99.99
2017-06-23T02:57:50.400Z,99.99
2017-06-23T02:58:31.311Z,99.99
2017-06-23T02:59:12.217Z,99.99
2017-06-23T02:59:53.090Z,99.99
2017-06-23T03:00:33.981Z,99.99
2017-06-23T03:01:14.862Z,99.99
2017-06-23T03:01:55.756Z,99.99
2017-06-23T03:02:36.636Z,99.99
2017-06-23T03:03:17.527Z,99.99
2017-06-23T03:03:58.418Z,99.99
2017-06-23T03:04:39.301Z,99.99
2017-06-23T03:05:20.193Z,99.99
2017-06-23T03:06:01.088Z,99.99
2017-06-23T03:06:41.979Z,99.99
2017-06-23T03:07:22.867Z,99.99
2017-06-23T03:08:03.784Z,99.99
2017-06-23T03:08:44.655Z,99.99
2017-06-23T03:09:25.547Z,99.99
2017-06-23T03:10:06.450Z,99.99
2017-06-23T03:10:47.355Z,99.99
2017-06-23T03:11:28.247Z,99.99
2017-06-23T03:12:09.135Z,99.99
2017-06-23T03:12:50.054Z,99.99
2017-06-23T03:13:30.942Z,99.99
2017-06-23T03:14:11.840Z,99.99
2017-06-23T03:14:52.731Z,99.99
2017-06-23T03:15:33.618Z,99.99
2017-06-23T03:17:32.379Z,99.99
2017-06-23T03:18:13.263Z,99.99
2017-06-23T03:18:54.166Z,99.99
2017-06-23T03:19:35.060Z,99.99
2017-06-23T03:20:15.957Z,99.99
2017-06-23T03:20:56.837Z,99.99
2017-06-23T03:21:37.753Z,99.99
2017-06-23T03:22:18.668Z,99.99
2017-06-23T03:22:59.554Z,99.99
2017-06-23T03:23:40.447Z,99.99
2017-06-23T03:24:21.354Z,99.99
2017-06-23T03:25:02.241Z,99.99
2017-06-23T03:25:43.126Z,99.99
2017-06-23T03:26:24.014Z,99.99
2017-06-23T03:27:04.900Z,99.99
2017-06-23T03:27:45.799Z,99.99
2017-06-23T03:28:26.674Z,99.99
2017-06-23T03:29:07.556Z,99.99
2017-06-23T03:29:48.437Z,99.99
2017-06-23T03:30:29.338Z,99.99
2017-06-23T03:31:10.212Z,99.99
2017-06-23T03:31:51.102Z,99.99
2017-06-23T03:32:31.995Z,99.99
2017-06-23T03:33:12.876Z,99.99
2017-06-23T03:33:53.774Z,99.99
2017-06-23T03:34:34.662Z,99.99
2017-06-23T03:35:15.564Z,99.99
2017-06-23T03:35:56.475Z,99.99
2017-06-23T03:36:37.350Z,99.99
2017-06-23T03:37:18.229Z,99.99
2017-06-23T03:37:59.128Z,99.99
2017-06-23T03:38:40.021Z,99.99
2017-06-23T03:39:20.911Z,99.99
2017-06-23T03:40:01.801Z,99.99
2017-06-23T03:40:42.693Z,99.99
2017-06-23T03:41:23.578Z,99.99
2017-06-23T03:42:04.463Z,99.99
2017-06-23T03:42:45.362Z,99.99
2017-06-23T03:43:26.241Z,99.99
2017-06-23T03:44:07.125Z,99.99
2017-06-23T03:44:48.008Z,99.99
2017-06-23T03:45:28.916Z,99.99
2017-06-23T03:46:09.791Z,99.99
2017-06-23T03:46:50.666Z,99.99
2017-06-23T03:47:31.568Z,99.99
2017-06-23T03:48:12.456Z,99.99
2017-06-23T03:48:53.347Z,99.99
2017-06-23T03:49:34.248Z,99.99
2017-06-23T03:50:15.122Z,99.99
2017-06-23T03:50:56.018Z,99.99
2017-06-23T03:51:36.899Z,99.99
2017-06-23T03:52:17.785Z,99.99
2017-06-23T03:54:16.534Z,99.99
2017-06-23T03:54:57.427Z,99.99
2017-06-23T03:55:38.334Z,99.99
2017-06-23T03:56:19.209Z,99.99
2017-06-23T03:57:00.107Z,99.99
2017-06-23T03:57:40.982Z,99.99
2017-06-23T03:58:21.877Z,99.99
2017-06-23T03:59:02.773Z,99.99
2017-06-23T03:59:43.666Z,99.99
2017-06-23T04:00:24.575Z,99.99
2017-06-23T04:01:05.467Z,99.99
2017-06-23T04:01:46.369Z,99.99
2017-06-23T04:02:27.255Z,99.99
2017-06-23T04:03:08.152Z,99.99
2017-06-23T04:03:49.045Z,99.99
2017-06-23T04:04:29.927Z,99.99
2017-06-23T04:05:10.811Z,99.99
2017-06-23T04:05:51.699Z,99.99
2017-06-23T04:06:32.599Z,99.99
2017-06-23T04:07:13.485Z,99.99
2017-06-23T04:07:54.374Z,99.99
2017-06-23T04:08:35.266Z,99.99
2017-06-23T04:09:16.185Z,99.99
2017-06-23T04:09:57.915Z,99.99
2017-06-23T04:10:38.799Z,99.99
2017-06-23T04:11:19.702Z,99.99
2017-06-23T04:12:00.598Z,99.99
2017-06-23T04:12:41.471Z,99.99
2017-06-23T04:13:22.365Z,99.99
2017-06-23T04:14:03.253Z,99.99
2017-06-23T04:14:44.149Z,99.99
2017-06-23T04:15:25.038Z,99.99
2017-06-23T04:16:05.929Z,99.99
2017-06-23T04:16:46.817Z,99.99
2017-06-23T04:17:27.711Z,99.99
2017-06-23T04:18:08.605Z,99.99
2017-06-23T04:18:49.501Z,99.99
2017-06-23T04:19:30.393Z,99.99
2017-06-23T04:20:11.275Z,99.99
2017-06-23T04:20:52.159Z,99.99
2017-06-23T04:21:33.057Z,99.99
2017-06-23T04:22:13.976Z,99.99
2017-06-23T04:22:54.867Z,99.99
2017-06-23T04:23:35.760Z,99.99
2017-06-23T04:24:16.632Z,99.99
2017-06-23T04:24:57.519Z,99.99
2017-06-23T04:25:38.422Z,99.99
2017-06-23T04:26:19.321Z,99.99
2017-06-23T04:27:00.204Z,99.99
2017-06-23T04:27:41.088Z,99.99
2017-06-23T04:28:21.975Z,99.99
2017-06-23T04:29:02.856Z,99.99
2017-06-23T04:29:43.755Z,99.99
2017-06-23T04:30:24.662Z,99.99
2017-06-23T04:31:05.523Z,99.99
2017-06-23T04:31:46.441Z,99.99
2017-06-23T04:32:27.344Z,99.99
2017-06-23T04:33:08.232Z,99.99
2017-06-23T04:33:49.124Z,99.99
2017-06-23T04:34:29.990Z,99.99
2017-06-23T04:35:10.872Z,99.99
2017-06-23T04:35:51.755Z,99.99
2017-06-23T04:36:32.647Z,99.99
2017-06-23T04:37:13.556Z,99.99
2017-06-23T04:39:07.167Z,99.99
2017-06-23T04:39:48.054Z,99.99
2017-06-23T04:40:28.954Z,99.99
2017-06-23T04:41:09.850Z,99.99
2017-06-23T04:41:50.728Z,99.99
2017-06-23T04:42:31.633Z,99.99
2017-06-23T04:43:12.525Z,99.99
2017-06-23T04:43:53.425Z,99.99
2017-06-23T04:44:34.315Z,99.99
2017-06-23T04:45:15.239Z,99.99
2017-06-23T04:45:56.129Z,99.99
2017-06-23T04:46:37.017Z,99.99
2017-06-23T04:47:17.924Z,99.99
2017-06-23T04:47:58.806Z,99.99
2017-06-23T04:48:39.698Z,99.99
2017-06-23T04:49:20.603Z,99.99
2017-06-23T04:50:01.480Z,99.99
2017-06-23T04:50:42.441Z,99.99
2017-06-23T04:51:23.275Z,99.99
2017-06-23T04:52:04.156Z,99.99
2017-06-23T04:52:45.045Z,99.99
2017-06-23T04:53:25.927Z,99.99
2017-06-23T04:54:06.822Z,99.99
2017-06-23T04:54:47.723Z,99.99
2017-06-23T04:55:28.605Z,99.99
2017-06-23T04:56:09.483Z,99.99
2017-06-23T04:56:50.370Z,99.99
2017-06-23T04:57:31.256Z,99.99
2017-06-23T04:58:12.139Z,99.99
2017-06-23T04:58:53.051Z,99.99
2017-06-23T04:59:33.934Z,99.99
2017-06-23T05:00:14.822Z,99.99
2017-06-23T05:00:55.699Z,99.99
2017-06-23T05:01:36.717Z,99.99
2017-06-23T05:02:17.574Z,99.99
2017-06-23T05:02:58.476Z,99.99
2017-06-23T05:03:39.355Z,99.99
2017-06-23T05:04:20.305Z,99.99
2017-06-23T05:05:01.258Z,99.99
2017-06-23T05:05:42.181Z,99.99
2017-06-23T05:06:23.072Z,99.99
2017-06-23T05:07:03.958Z,99.99
2017-06-23T05:07:44.850Z,99.99
2017-06-23T05:08:25.748Z,99.99
2017-06-23T05:09:06.645Z,99.99
2017-06-23T05:09:47.548Z,99.99
2017-06-23T05:10:28.432Z,99.99
2017-06-23T05:11:09.304Z,99.99
2017-06-23T05:11:50.221Z,99.99
2017-06-23T05:12:31.156Z,99.99
2017-06-23T05:13:12.045Z,99.99
2017-06-23T05:13:52.907Z,99.99
2017-06-23T05:14:33.838Z,99.99
2017-06-23T05:15:14.721Z,99.99
2017-06-23T05:15:55.617Z,99.99
2017-06-23T05:16:36.519Z,99.99
2017-06-23T05:17:17.515Z,99.99
2017-06-23T05:17:58.391Z,99.99
2017-06-23T05:18:39.299Z,99.99
2017-06-23T05:19:20.183Z,99.99
2017-06-23T05:20:01.064Z,99.99
2017-06-23T05:20:41.971Z,99.99
2017-06-23T05:21:22.857Z,99.99
2017-06-23T05:22:03.742Z,99.99
2017-06-23T05:22:44.630Z,99.99
2017-06-23T05:23:25.554Z,99.99
2017-06-23T05:24:06.441Z,99.99
2017-06-23T05:24:48.886Z,99.99
2017-06-23T05:25:29.764Z,99.99
2017-06-23T05:26:10.679Z,99.99
2017-06-23T05:26:51.539Z,99.99
2017-06-23T05:27:32.418Z,99.99
2017-06-23T05:28:13.318Z,99.99
2017-06-23T05:28:54.198Z,99.99
2017-06-23T05:29:35.095Z,99.99
2017-06-23T05:30:15.989Z,99.99
2017-06-23T05:30:56.892Z,99.99
2017-06-23T05:31:39.739Z,99.99
2017-06-23T05:32:20.627Z,99.99
2017-06-23T05:33:01.515Z,99.99
2017-06-23T05:33:42.417Z,99.99
2017-06-23T05:34:23.309Z,99.99
2017-06-23T05:35:04.263Z,99.99
2017-06-23T05:35:45.149Z,99.99
2017-06-23T05:36:26.070Z,99.99
2017-06-23T05:37:06.968Z,99.99
2017-06-23T05:37:47.849Z,99.99
2017-06-23T05:38:28.742Z,99.99
2017-06-23T05:39:09.691Z,99.99
2017-06-23T05:39:50.523Z,99.99
2017-06-23T05:40:31.415Z,99.99
2017-06-23T05:41:12.291Z,99.99
2017-06-23T05:41:53.177Z,99.99
2017-06-23T05:42:34.064Z,99.99
2017-06-23T05:43:14.956Z,99.99
2017-06-23T05:43:55.846Z,99.99
2017-06-23T05:44:36.734Z,99.99
2017-06-23T05:45:17.621Z,99.99
2017-06-23T05:45:58.508Z,99.99
2017-06-23T05:46:39.392Z,99.99
2017-06-23T05:47:20.274Z,99.99
2017-06-23T05:48:01.180Z,99.99
2017-06-23T05:48:42.093Z,99.99
2017-06-23T05:49:22.973Z,99.99
2017-06-23T05:50:03.879Z,99.99
2017-06-23T05:50:44.760Z,99.99
2017-06-23T05:51:25.636Z,99.99
2017-06-23T05:52:06.521Z,99.99
2017-06-23T05:52:47.418Z,99.99
2017-06-23T05:53:28.304Z,99.99
2017-06-23T05:54:09.193Z,99.99
2017-06-23T05:54:50.086Z,99.99
2017-06-23T05:55:30.974Z,99.99
2017-06-23T05:56:11.869Z,99.99
2017-06-23T05:56:52.763Z,99.99
2017-06-23T05:57:33.649Z,99.99
2017-06-23T05:58:14.550Z,99.99
2017-06-23T05:58:55.449Z,99.99
2017-06-23T05:59:36.333Z,99.99
2017-06-23T06:00:17.267Z,99.99
2017-06-23T06:00:58.155Z,99.99
2017-06-23T06:01:39.039Z,99.99
2017-06-23T06:02:19.999Z,99.99
2017-06-23T06:03:00.897Z,99.99
2017-06-23T06:03:41.770Z,99.99
2017-06-23T06:04:22.656Z,99.99
2017-06-23T06:05:03.583Z,99.99
2017-06-23T06:05:44.467Z,99.99
2017-06-23T06:06:25.352Z,99.99
2017-06-23T06:07:06.246Z,99.99
2017-06-23T06:07:47.134Z,99.99
2017-06-23T06:08:28.130Z,99.99
2017-06-23T06:09:10.757Z,99.99
2017-06-23T06:09:51.642Z,99.99
2017-06-23T06:10:32.522Z,99.99
2017-06-23T06:11:13.431Z,99.99
2017-06-23T06:11:54.305Z,99.99
2017-06-23T06:12:35.188Z,99.99
2017-06-23T06:13:16.079Z,99.99
2017-06-23T06:13:58.913Z,99.99
2017-06-23T06:14:39.802Z,99.99
2017-06-23T06:15:20.771Z,99.99
2017-06-23T06:16:01.657Z,99.99
2017-06-23T06:16:42.569Z,99.99
2017-06-23T06:18:15.906Z,99.99
2017-06-23T06:18:56.792Z,99.99
2017-06-23T06:19:37.682Z,99.99
2017-06-23T06:20:18.570Z,99.99
2017-06-23T06:20:59.453Z,99.99
2017-06-23T06:21:40.333Z,99.99
2017-06-23T06:22:21.217Z,99.99
2017-06-23T06:23:02.104Z,99.99
2017-06-23T06:23:42.991Z,99.99
2017-06-23T06:24:23.868Z,99.99
2017-06-23T06:25:04.771Z,99.99
2017-06-23T06:25:45.680Z,99.99
2017-06-23T06:27:14.096Z,99.99
2017-06-23T06:27:55.016Z,99.99
2017-06-23T06:28:35.897Z,99.99
2017-06-23T06:29:16.771Z,99.99
2017-06-23T06:29:57.665Z,99.99
2017-06-23T06:30:38.566Z,99.99
2017-06-23T06:31:19.486Z,99.99
2017-06-23T06:32:00.434Z,99.99
2017-06-23T06:32:41.280Z,99.99
2017-06-23T06:33:22.167Z,99.99
2017-06-23T06:34:03.051Z,99.99
2017-06-23T06:34:43.934Z,99.99
2017-06-23T06:35:24.835Z,99.99
2017-06-23T06:36:05.748Z,99.99
2017-06-23T06:36:46.644Z,99.99
2017-06-23T06:37:27.533Z,99.99
2017-06-23T06:38:08.421Z,99.99
2017-06-23T06:38:49.301Z,99.99
2017-06-23T06:39:30.193Z,99.99
2017-06-23T06:40:11.081Z,99.99
2017-06-23T06:40:51.979Z,99.99
2017-06-23T06:41:32.902Z,99.99
2017-06-23T06:42:13.784Z,99.99
2017-06-23T06:42:54.669Z,99.98
2017-06-23T06:43:35.574Z,99.99
2017-06-23T06:44:16.460Z,99.99
2017-06-23T06:44:57.360Z,99.99
2017-06-23T06:45:38.256Z,99.99
2017-06-23T06:46:19.144Z,99.99
2017-06-23T06:47:00.041Z,99.99
2017-06-23T06:47:40.932Z,99.99
2017-06-23T06:48:21.821Z,99.99
2017-06-23T06:49:02.709Z,99.99
2017-06-23T06:49:43.605Z,99.99
2017-06-23T06:51:42.367Z,99.99
2017-06-23T06:52:23.270Z,99.99
2017-06-23T06:53:04.154Z,99.99
2017-06-23T06:53:45.042Z,99.99
2017-06-23T06:54:25.943Z,99.99
2017-06-23T06:55:06.833Z,99.83
2017-06-23T06:55:47.724Z,99.99
2017-06-23T06:56:28.622Z,99.99
2017-06-23T06:57:09.511Z,99.99
2017-06-23T06:57:50.404Z,99.99
2017-06-23T06:58:31.300Z,99.99
2017-06-23T06:59:12.183Z,99.99
2017-06-23T06:59:53.076Z,99.99
2017-06-23T07:00:33.966Z,99.99
2017-06-23T07:01:14.862Z,99.99
2017-06-23T07:01:55.749Z,99.99
2017-06-23T07:02:36.627Z,99.99
2017-06-23T07:03:17.512Z,99.99
2017-06-23T07:03:58.396Z,99.99
2017-06-23T07:04:39.295Z,99.99
2017-06-23T07:05:20.166Z,99.99
2017-06-23T07:06:01.061Z,99.99
2017-06-23T07:06:41.923Z,99.99
2017-06-23T07:07:22.818Z,99.99
2017-06-23T07:08:03.694Z,99.99
2017-06-23T07:08:44.583Z,99.99
2017-06-23T07:09:25.506Z,99.99
2017-06-23T07:10:06.392Z,99.99
2017-06-23T07:10:47.349Z,99.99
2017-06-23T07:11:28.238Z,99.99
2017-06-23T07:12:09.126Z,99.99
2017-06-23T07:12:50.013Z,99.99
2017-06-23T07:13:30.893Z,99.99
2017-06-23T07:14:11.802Z,99.99
2017-06-23T07:14:52.708Z,99.99
2017-06-23T07:15:33.572Z,99.99
2017-06-23T07:16:14.478Z,99.99
2017-06-23T07:16:55.369Z,99.99
2017-06-23T07:17:36.242Z,99.99
2017-06-23T07:18:17.108Z,99.99
2017-06-23T07:18:58.017Z,99.99
2017-06-23T07:19:38.958Z,99.99
2017-06-23T07:21:12.224Z,99.99
2017-06-23T07:21:53.118Z,99.99
2017-06-23T07:22:34.018Z,99.99
2017-06-23T07:23:14.893Z,99.99
2017-06-23T07:23:55.779Z,99.99
2017-06-23T07:24:36.673Z,99.88
2017-06-23T07:25:17.563Z,99.99
2017-06-23T07:25:58.434Z,99.98
2017-06-23T07:26:39.315Z,99.99
2017-06-23T07:27:20.222Z,99.68
2017-06-23T07:28:01.112Z,99.78
2017-06-23T07:28:42.005Z,99.59
2017-06-23T07:29:22.898Z,99.68
2017-06-23T07:30:03.777Z,99.78
2017-06-23T07:30:44.668Z,99.63
2017-06-23T07:31:25.578Z,99.68
2017-06-23T07:32:06.464Z,99.68
2017-06-23T07:32:47.379Z,99.59
2017-06-23T07:33:28.280Z,99.68
2017-06-23T07:34:09.179Z,99.99
2017-06-23T07:34:50.055Z,99.88
2017-06-23T07:35:30.951Z,99.98
2017-06-23T07:36:11.827Z,99.59
2017-06-23T07:36:52.764Z,99.78
2017-06-23T07:37:33.657Z,99.78
2017-06-23T07:38:14.566Z,99.59
2017-06-23T07:38:55.460Z,99.78
2017-06-23T07:39:36.352Z,99.59
2017-06-23T07:40:17.252Z,99.73
2017-06-23T07:41:00.182Z,99.99
2017-06-23T07:42:28.184Z,99.06
2017-06-23T07:43:09.107Z,99.26
2017-06-23T07:43:49.983Z,99.99
2017-06-23T07:44:30.879Z,99.78
2017-06-23T07:45:11.775Z,99.88
2017-06-23T07:45:52.673Z,99.78
2017-06-23T07:46:33.580Z,99.88
2017-06-23T07:47:14.468Z,99.59
2017-06-23T07:47:55.355Z,99.88
2017-06-23T07:48:36.248Z,99.68
2017-06-23T07:49:17.130Z,99.99
2017-06-23T07:49:58.033Z,99.49
2017-06-23T07:50:38.924Z,99.99
2017-06-23T07:51:19.823Z,99.99
2017-06-23T07:52:00.710Z,99.99
2017-06-23T07:52:41.597Z,99.99
2017-06-23T07:53:22.498Z,99.59
2017-06-23T07:54:03.392Z,99.99
2017-06-23T07:54:44.283Z,99.99
2017-06-23T07:55:25.178Z,99.99
2017-06-23T07:56:06.066Z,99.99
2017-06-23T07:56:46.960Z,99.26
2017-06-23T07:57:27.853Z,99.16
2017-06-23T07:58:08.741Z,99.26
2017-06-23T07:58:49.646Z,98.87
2017-06-23T07:59:30.530Z,98.49
2017-06-23T08:00:11.431Z,98.54
2017-06-23T08:00:52.326Z,98.14
2017-06-23T08:01:33.258Z,98.34
2017-06-23T08:02:14.126Z,97.91
2017-06-23T08:02:54.999Z,97.86
2017-06-23T08:03:35.882Z,98.24
2017-06-23T08:04:16.784Z,97.19
2017-06-23T08:04:57.677Z,96.56
2017-06-23T08:05:38.576Z,96.27
2017-06-23T08:06:19.458Z,96.51
2017-06-23T08:07:00.342Z,96.42
2017-06-23T08:07:41.230Z,97.09
2017-06-23T08:08:22.115Z,97.09
2017-06-23T08:09:03.014Z,97.09
2017-06-23T08:09:43.931Z,97.14
2017-06-23T08:10:24.834Z,97.47
2017-06-23T08:11:05.730Z,96.51
2017-06-23T08:11:46.634Z,96.51
2017-06-23T08:12:27.548Z,96.56
2017-06-23T08:13:08.449Z,96.7
2017-06-23T08:13:49.334Z,95.31
2017-06-23T08:14:30.221Z,95.84
2017-06-23T08:15:11.110Z,95.45
2017-06-23T08:15:52.013Z,94.97
2017-06-23T08:16:32.891Z,94.34
2017-06-23T08:17:13.770Z,93.48
2017-06-23T08:17:54.678Z,93.82
2017-06-23T08:18:35.574Z,93.19
2017-06-23T08:19:16.474Z,92.27
2017-06-23T08:19:57.369Z,92.76
2017-06-23T08:20:38.263Z,93.38
2017-06-23T08:21:19.151Z,93.38
2017-06-23T08:22:00.053Z,92.47
2017-06-23T08:22:40.940Z,92.61
2017-06-23T08:23:21.842Z,91.5
2017-06-23T08:24:02.734Z,91.74
2017-06-23T08:24:43.646Z,90.2
2017-06-23T08:25:24.545Z,89.86
2017-06-23T08:26:05.441Z,88.89
2017-06-23T08:26:46.341Z,88.51
2017-06-23T08:27:27.247Z,88.51
2017-06-23T08:28:08.136Z,88.55
2017-06-23T08:28:49.043Z,88.12
2017-06-23T08:29:29.957Z,87.01
2017-06-23T08:30:10.853Z,87.3
2017-06-23T08:30:51.734Z,86.24
2017-06-23T08:31:32.659Z,85.89
2017-06-23T08:32:13.562Z,85.6
2017-06-23T08:32:54.470Z,86.04
2017-06-23T08:33:35.360Z,85.6
2017-06-23T08:34:16.261Z,84.16
2017-06-23T08:34:57.171Z,84.06
2017-06-23T08:35:38.059Z,83.19
2017-06-23T08:36:18.984Z,82.81
2017-06-23T08:36:59.877Z,82.11
2017-06-23T08:37:40.773Z,80.18
2017-06-23T08:38:21.667Z,79.99
2017-06-23T08:39:02.551Z,80.53
2017-06-23T08:39:43.459Z,80.53
2017-06-23T08:40:24.353Z,80.33
2017-06-23T08:41:05.259Z,79.89
2017-06-23T08:41:46.173Z,78.06
2017-06-23T08:42:27.078Z,79.33
2017-06-23T08:43:08.006Z,79.81
2017-06-23T08:43:48.902Z,80.93
2017-06-23T08:44:29.807Z,80.43
2017-06-23T08:45:10.720Z,79.95
2017-06-23T08:45:51.617Z,78.15
2017-06-23T08:46:33.063Z,75.68
2017-06-23T08:47:13.956Z,74.55
2017-06-23T08:47:54.870Z,74.27
2017-06-23T08:48:35.763Z,73.07
2017-06-23T08:49:16.669Z,76.42
2017-06-23T08:49:57.571Z,75.54
2017-06-23T08:50:38.470Z,76.53
2017-06-23T08:51:19.380Z,79.83
2017-06-23T08:53:33.181Z,81.91
2017-06-23T08:54:14.093Z,82.05
2017-06-23T08:54:54.997Z,81.37
2017-06-23T08:55:35.897Z,81.02
2017-06-23T08:56:16.836Z,80.54
2017-06-23T08:56:58.634Z,80.35
2017-06-23T08:57:39.535Z,79.24